createdAt,value
2022-09-13T00:00:56.711Z,91.14
2022-09-13T00:03:25.239Z,90.93
2022-09-13T00:05:53.501Z,91.13
2022-09-13T00:08:21.914Z,90.49
2022-09-13T00:10:49.996Z,90.87
2022-09-13T00:13:18.963Z,91.06
2022-09-13T00:15:49.080Z,90.77
2022-09-13T00:18:20.135Z,90.62
2022-09-13T00:20:48.374Z,91.08
2022-09-13T00:23:16.630Z,91.74
2022-09-13T00:25:44.575Z,91.72
2022-09-13T00:28:12.543Z,90.96
2022-09-13T00:30:40.636Z,90.96
2022-09-13T00:33:09.405Z,91.37
2022-09-13T00:35:38.635Z,92.01
2022-09-13T00:38:07.024Z,91.33
2022-09-13T00:40:38.860Z,90.68
2022-09-13T00:43:13.795Z,90.94
2022-09-13T00:45:41.800Z,91.42
2022-09-13T00:48:17.855Z,91.07
2022-09-13T00:50:51.783Z,91.42
2022-09-13T00:53:25.218Z,91.15
2022-09-13T00:55:57.751Z,91.97
2022-09-13T00:58:33.053Z,91.46
2022-09-13T01:01:02.596Z,91.31
2022-09-13T01:03:35.459Z,91.24
2022-09-13T01:06:09.340Z,92.52
2022-09-13T01:08:40.096Z,92.92
2022-09-13T01:11:13.370Z,92.07
2022-09-13T01:13:42.918Z,91.86
2022-09-13T01:16:11.165Z,91.71
2022-09-13T01:18:39.047Z,93.55
2022-09-13T01:21:40.769Z,93.42
2022-09-13T01:24:35.055Z,92.15
2022-09-13T01:27:24.922Z,92.45
2022-09-13T01:30:22.243Z,92.31
2022-09-13T01:33:07.861Z,92.10
2022-09-13T01:36:08.756Z,92.26
2022-09-13T01:38:54.807Z,92.03
2022-09-13T01:41:37.227Z,92.37
2022-09-13T01:44:17.012Z,92.59
2022-09-13T01:46:50.717Z,91.75
2022-09-13T01:49:24.240Z,92.11
2022-09-13T01:52:01.152Z,91.57
2022-09-13T01:54:38.466Z,92.28
2022-09-13T01:57:14.992Z,91.55
2022-09-13T01:59:50.699Z,92.07
2022-09-13T02:02:24.997Z,92.82
2022-09-13T02:04:57.753Z,92.54
2022-09-13T02:07:32.691Z,92.49
2022-09-13T02:10:07.727Z,93.16
2022-09-13T02:12:38.107Z,93.86
2022-09-13T02:15:11.822Z,93.95
2022-09-13T02:17:45.523Z,93.57
2022-09-13T02:20:19.699Z,92.89
2022-09-13T02:22:53.344Z,93.37
2022-09-13T02:25:24.060Z,92.98
2022-09-13T02:27:59.075Z,93.12
2022-09-13T02:30:29.977Z,92.89
2022-09-13T02:33:06.818Z,92.68
2022-09-13T02:35:38.333Z,93.07
2022-09-13T02:38:08.636Z,93.45
2022-09-13T02:40:44.323Z,93.90
2022-09-13T02:43:17.275Z,93.75
2022-09-13T02:45:51.144Z,92.46
2022-09-13T02:48:27.686Z,93.47
2022-09-13T02:51:04.387Z,93.62
2022-09-13T02:53:42.133Z,93.53
2022-09-13T02:56:23.155Z,93.60
2022-09-13T02:58:58.476Z,94.37
2022-09-13T03:01:27.210Z,93.69
2022-09-13T03:03:56.778Z,93.76
2022-09-13T03:06:25.988Z,93.66
2022-09-13T03:08:54.468Z,93.99
2022-09-13T03:11:37.515Z,94.40
2022-09-13T03:14:24.202Z,94.30
2022-09-13T03:17:14.040Z,95.73
2022-09-13T03:19:58.350Z,95.71
2022-09-13T03:22:41.049Z,95.62
2022-09-13T03:25:16.459Z,94.95
2022-09-13T03:27:53.391Z,95.04
2022-09-13T03:30:21.804Z,94.64
2022-09-13T03:32:54.736Z,94.48
2022-09-13T03:35:31.648Z,93.98
2022-09-13T03:38:06.764Z,94.10
2022-09-13T03:40:43.288Z,94.47
2022-09-13T03:43:18.109Z,94.58
2022-09-13T03:45:50.139Z,94.21
2022-09-13T03:48:20.364Z,94.13
2022-09-13T03:50:50.834Z,94.66
2022-09-13T03:53:25.065Z,95.32
2022-09-13T03:55:53.260Z,94.81
2022-09-13T03:58:22.883Z,94.19
2022-09-13T04:00:51.570Z,94.22
2022-09-13T04:03:22.779Z,93.82
2022-09-13T04:05:52.502Z,94.33
2022-09-13T04:08:20.595Z,94.69
2022-09-13T04:10:52.454Z,94.62
2022-09-13T04:13:23.023Z,94.49
2022-09-13T04:15:51.854Z,95.26
2022-09-13T04:18:20.020Z,94.88
2022-09-13T04:20:56.852Z,94.77
2022-09-13T04:23:25.161Z,95.22
2022-09-13T04:25:54.004Z,94.35
2022-09-13T04:28:23.774Z,94.57
2022-09-13T04:30:52.127Z,94.41
2022-09-13T04:33:20.037Z,94.69
2022-09-13T04:35:48.559Z,94.30
2022-09-13T04:38:17.896Z,94.70
2022-09-13T04:40:46.203Z,93.04
2022-09-13T04:43:14.171Z,93.49
2022-09-13T04:45:42.190Z,93.77
2022-09-13T04:48:10.176Z,94.03
2022-09-13T04:50:38.912Z,93.59
2022-09-13T04:53:07.151Z,93.95
2022-09-13T04:55:37.365Z,94.14
2022-09-13T04:58:05.377Z,94.64
2022-09-13T05:00:34.429Z,94.41
2022-09-13T05:03:02.952Z,94.29
2022-09-13T05:05:32.770Z,94.42
2022-09-13T05:08:00.743Z,94.35
2022-09-13T05:10:28.913Z,94.50
2022-09-13T05:12:58.785Z,94.40
2022-09-13T05:15:26.847Z,93.77
2022-09-13T05:17:55.234Z,93.49
2022-09-13T05:20:23.299Z,93.18
2022-09-13T05:22:51.745Z,93.25
2022-09-13T05:25:22.971Z,92.95
2022-09-13T05:27:56.414Z,92.24
2022-09-13T05:30:26.034Z,92.13
2022-09-13T05:32:56.338Z,91.84
2022-09-13T05:35:29.607Z,91.58
2022-09-13T05:37:58.110Z,91.40
2022-09-13T05:40:28.323Z,90.88
2022-09-13T05:42:59.247Z,90.44
2022-09-13T05:45:29.409Z,91.28
2022-09-13T05:47:58.233Z,90.35
2022-09-13T05:50:56.440Z,89.50
2022-09-13T05:53:17.616Z,88.71
2022-09-13T05:55:47.867Z,88.74
2022-09-13T05:58:16.432Z,88.77
2022-09-13T06:00:45.882Z,88.15
2022-09-13T06:03:14.249Z,88.05
2022-09-13T06:05:42.219Z,86.32
2022-09-13T06:08:10.193Z,85.50
2022-09-13T06:10:38.847Z,85.42
2022-09-13T06:13:06.919Z,83.82
2022-09-13T06:15:37.963Z,84.41
2022-09-13T06:18:09.519Z,81.88
2022-09-13T06:20:37.894Z,80.11
2022-09-13T06:23:06.106Z,78.66
2022-09-13T06:25:34.568Z,78.17
2022-09-13T06:28:02.840Z,76.96
2022-09-13T06:30:31.776Z,75.35
2022-09-13T06:33:00.009Z,75.69
2022-09-13T06:35:29.996Z,75.95
2022-09-13T06:37:59.579Z,72.28
2022-09-13T06:40:28.575Z,68.71
2022-09-13T06:42:56.837Z,69.50
2022-09-13T06:45:25.083Z,68.59
2022-09-13T06:47:55.914Z,69.09
2022-09-13T06:50:25.994Z,71.62
2022-09-13T06:52:57.302Z,72.18
2022-09-13T06:55:25.395Z,72.48
2022-09-13T06:57:53.483Z,70.85
2022-09-13T07:00:25.057Z,71.06
2022-09-13T07:02:53.996Z,71.10
2022-09-13T07:05:25.430Z,72.37
2022-09-13T07:07:53.436Z,71.32
2022-09-13T07:10:26.096Z,69.22
2022-09-13T07:12:56.616Z,67.80
2022-09-13T07:15:25.060Z,68.11
2022-09-13T07:17:52.923Z,66.36
2022-09-13T07:20:23.494Z,62.66
2022-09-13T07:22:52.269Z,61.25
2022-09-13T07:25:20.324Z,60.68
2022-09-13T07:27:49.710Z,56.45
2022-09-13T07:30:18.111Z,55.11
2022-09-13T07:32:46.022Z,54.73
2022-09-13T07:35:14.662Z,53.73
2022-09-13T07:37:42.791Z,48.38
2022-09-13T07:40:11.976Z,47.45
2022-09-13T07:42:40.574Z,49.34
2022-09-13T07:45:13.067Z,50.37
2022-09-13T07:47:41.613Z,47.81
2022-09-13T07:50:10.493Z,46.32
2022-09-13T07:52:38.846Z,47.61
2022-09-13T07:55:07.391Z,46.49
2022-09-13T07:57:35.703Z,50.26
2022-09-13T08:00:04.357Z,52.17
2022-09-13T08:02:34.038Z,52.82
2022-09-13T08:05:01.989Z,53.36
2022-09-13T08:07:30.326Z,54.42
2022-09-13T08:09:58.279Z,55.12
2022-09-13T08:12:26.717Z,56.73
2022-09-13T08:14:54.617Z,53.74
2022-09-13T08:17:23.135Z,52.45
2022-09-13T08:19:52.535Z,49.42
2022-09-13T08:22:20.880Z,48.91
2022-09-13T08:24:48.928Z,49.53
2022-09-13T08:27:17.222Z,48.59
2022-09-13T08:29:45.813Z,49.72
2022-09-13T08:32:14.284Z,46.32
2022-09-13T08:34:42.363Z,43.49
2022-09-13T08:37:12.995Z,42.26
2022-09-13T08:39:40.996Z,40.39
2022-09-13T08:42:24.101Z,39.98
2022-09-13T08:44:55.926Z,43.61
2022-09-13T08:47:34.374Z,45.47
2022-09-13T08:50:13.096Z,45.97
2022-09-13T08:52:50.932Z,43.35
2022-09-13T08:55:28.327Z,39.39
2022-09-13T08:58:03.797Z,39.09
2022-09-13T09:00:39.100Z,41.71
2022-09-13T09:03:21.981Z,44.41
2022-09-13T09:05:54.581Z,45.90
2022-09-13T09:08:34.314Z,43.69
2022-09-13T09:11:08.932Z,40.70
2022-09-13T09:13:40.694Z,41.35
2022-09-13T09:16:26.041Z,41.55
2022-09-13T09:18:56.704Z,39.89
2022-09-13T09:21:24.760Z,40.62
2022-09-13T09:23:56.247Z,42.73
2022-09-13T09:26:26.560Z,41.52
2022-09-13T09:28:57.426Z,40.83
2022-09-13T09:31:35.877Z,45.35
2022-09-13T09:34:16.947Z,47.60
2022-09-13T09:36:51.070Z,50.98
2022-09-13T09:39:20.450Z,53.30
2022-09-13T09:41:48.803Z,59.54
2022-09-13T09:44:21.660Z,65.54
2022-09-13T09:46:53.680Z,69.57
2022-09-13T09:49:50.441Z,66.78
2022-09-13T09:52:24.633Z,78.17
2022-09-13T09:54:59.775Z,74.40
2022-09-13T09:57:53.076Z,66.77
2022-09-13T10:00:22.687Z,65.41
2022-09-13T10:02:55.449Z,62.21
2022-09-13T10:05:26.736Z,59.35
2022-09-13T10:08:05.769Z,59.31
2022-09-13T10:10:45.660Z,60.98
2022-09-13T10:13:18.356Z,61.01
2022-09-13T10:15:58.584Z,59.48
2022-09-13T10:18:43.487Z,59.25
2022-09-13T10:21:24.378Z,57.83
2022-09-13T10:24:13.258Z,57.37
2022-09-13T10:26:42.631Z,58.25
2022-09-13T10:29:14.468Z,58.99
2022-09-13T10:31:46.465Z,57.78
2022-09-13T10:34:20.690Z,56.79
2022-09-13T10:36:55.798Z,54.41
2022-09-13T10:39:25.347Z,52.85
2022-09-13T10:41:58.011Z,53.32
2022-09-13T10:44:33.110Z,52.19
2022-09-13T10:47:05.139Z,50.68
2022-09-13T10:49:42.004Z,48.83
2022-09-13T10:52:33.997Z,49.69
2022-09-13T10:55:29.480Z,48.44
2022-09-13T10:58:15.308Z,48.93
2022-09-13T11:00:52.017Z,48.91
2022-09-13T11:03:33.493Z,51.25
2022-09-13T11:06:13.063Z,49.16
2022-09-13T11:08:51.229Z,49.68
2022-09-13T11:11:24.124Z,49.68
2022-09-13T11:14:21.237Z,45.64
2022-09-13T11:17:01.153Z,47.46
2022-09-13T11:19:59.683Z,50.33
2022-09-13T11:22:40.769Z,49.25
2022-09-13T11:25:26.292Z,50.31
2022-09-13T11:28:04.817Z,49.61
2022-09-13T11:30:40.229Z,50.46
2022-09-13T11:33:27.021Z,49.88
2022-09-13T11:36:17.029Z,49.75
2022-09-13T11:38:54.411Z,48.40
2022-09-13T11:41:30.380Z,48.45
2022-09-13T11:44:26.957Z,49.48
2022-09-13T11:47:07.612Z,45.79
2022-09-13T11:49:50.732Z,47.07
2022-09-13T11:52:29.247Z,49.15
2022-09-13T11:55:07.486Z,47.91
2022-09-13T11:57:40.995Z,48.46
2022-09-13T12:00:20.704Z,49.28
2022-09-13T12:02:59.120Z,48.87
2022-09-13T12:05:32.057Z,47.82
2022-09-13T12:08:05.028Z,47.57
2022-09-13T12:10:48.016Z,48.87
2022-09-13T12:13:22.168Z,48.80
2022-09-13T12:15:54.927Z,48.17
2022-09-13T12:18:28.846Z,47.28
2022-09-13T12:21:00.580Z,47.82
2022-09-13T12:23:35.001Z,46.13
2022-09-13T12:26:08.137Z,46.35
2022-09-13T12:28:41.823Z,46.72
2022-09-13T12:31:16.178Z,46.01
2022-09-13T12:33:47.522Z,47.69
2022-09-13T12:36:41.238Z,45.40
2022-09-13T12:39:31.594Z,43.45
2022-09-13T12:42:27.055Z,43.74
2022-09-13T12:45:08.842Z,47.20
2022-09-13T12:48:15.267Z,44.83
2022-09-13T12:50:53.245Z,44.31
2022-09-13T12:54:18.046Z,43.52
2022-09-13T12:56:57.143Z,41.97
2022-09-13T13:00:10.307Z,43.91
2022-09-13T13:02:41.312Z,41.55
2022-09-13T13:05:23.451Z,39.17
2022-09-13T13:07:56.891Z,39.50
2022-09-13T13:10:32.148Z,37.58
2022-09-13T13:13:16.187Z,37.09
2022-09-13T13:16:22.890Z,37.61
2022-09-13T13:18:52.116Z,37.91
2022-09-13T13:21:35.390Z,37.00
2022-09-13T13:24:45.824Z,37.05
2022-09-13T13:27:46.281Z,37.44
2022-09-13T13:30:41.634Z,36.65
2022-09-13T13:33:19.883Z,36.94
2022-09-13T13:35:49.318Z,36.44
2022-09-13T13:38:48.766Z,36.93
2022-09-13T13:41:41.675Z,36.99
2022-09-13T13:44:46.588Z,36.74
2022-09-13T13:48:08.041Z,37.87
2022-09-13T13:50:39.241Z,38.64
2022-09-13T13:53:24.169Z,38.32
2022-09-13T13:56:09.518Z,38.99
2022-09-13T13:58:50.672Z,39.78
2022-09-13T14:01:23.764Z,40.22
2022-09-13T14:04:08.713Z,40.58
2022-09-13T14:06:49.378Z,40.94
2022-09-13T14:09:33.645Z,39.79
2022-09-13T14:12:18.034Z,40.75
2022-09-13T14:15:10.048Z,40.90
2022-09-13T14:17:57.580Z,41.07
2022-09-13T14:20:26.884Z,41.78
2022-09-13T14:23:13.038Z,41.95
2022-09-13T14:25:41.040Z,41.66
2022-09-13T14:28:08.943Z,41.73
2022-09-13T14:30:39.509Z,41.97
2022-09-13T14:33:08.734Z,41.98
2022-09-13T14:35:38.358Z,41.63
2022-09-13T14:38:14.071Z,41.32
2022-09-13T14:40:41.969Z,42.22
2022-09-13T14:43:18.060Z,41.88
2022-09-13T14:45:49.698Z,42.13
2022-09-13T14:48:24.177Z,42.12
2022-09-13T14:50:55.832Z,41.58
2022-09-13T14:53:26.905Z,41.40
2022-09-13T14:55:57.894Z,40.92
2022-09-13T14:58:30.247Z,40.74
2022-09-13T15:01:03.349Z,40.94
2022-09-13T15:03:32.040Z,39.99
2022-09-13T15:06:02.797Z,40.16
2022-09-13T15:08:52.445Z,40.29
2022-09-13T15:11:32.439Z,40.13
2022-09-13T15:14:24.673Z,40.47
2022-09-13T15:16:57.012Z,39.41
2022-09-13T15:19:37.425Z,40.08
2022-09-13T15:22:12.631Z,40.62
2022-09-13T15:24:46.356Z,41.02
2022-09-13T15:27:33.003Z,41.62
2022-09-13T15:30:04.194Z,41.51
2022-09-13T15:32:36.556Z,41.38
2022-09-13T15:35:05.144Z,42.09
2022-09-13T15:37:37.409Z,41.95
2022-09-13T15:40:21.678Z,42.47
2022-09-13T15:42:50.900Z,43.04
2022-09-13T15:45:20.458Z,42.62
2022-09-13T15:47:52.056Z,43.08
2022-09-13T15:50:27.311Z,43.71
2022-09-13T15:52:55.793Z,44.29
2022-09-13T15:55:24.661Z,44.42
2022-09-13T15:57:52.872Z,44.23
2022-09-13T16:00:23.134Z,44.07
2022-09-13T16:02:52.982Z,45.01
2022-09-13T16:05:21.668Z,45.82
2022-09-13T16:07:50.444Z,45.72
2022-09-13T16:10:21.037Z,46.24
2022-09-13T16:12:49.256Z,46.35
2022-09-13T16:15:17.645Z,46.94
2022-09-13T16:17:45.656Z,46.85
2022-09-13T16:20:17.484Z,47.12
2022-09-13T16:22:45.464Z,47.58
2022-09-13T16:25:14.751Z,48.41
2022-09-13T16:27:44.793Z,48.48
2022-09-13T16:30:15.842Z,49.22
2022-09-13T16:32:44.568Z,48.60
2022-09-13T16:35:16.281Z,48.99
2022-09-13T16:37:44.491Z,49.73
2022-09-13T16:40:13.735Z,49.66
2022-09-13T16:42:41.755Z,49.45
2022-09-13T16:45:11.404Z,50.56
2022-09-13T16:47:40.046Z,50.52
2022-09-13T16:50:09.453Z,50.72
2022-09-13T16:52:39.328Z,51.16
2022-09-13T16:55:08.378Z,51.53
2022-09-13T16:57:37.279Z,51.85
2022-09-13T17:00:11.435Z,52.37
2022-09-13T17:02:40.027Z,52.53
2022-09-13T17:05:08.926Z,52.77
2022-09-13T17:07:38.312Z,53.18
2022-09-13T17:10:08.669Z,53.38
2022-09-13T17:12:36.614Z,53.94
2022-09-13T17:15:05.710Z,54.21
2022-09-13T17:17:36.241Z,54.97
2022-09-13T17:20:08.234Z,55.39
2022-09-13T17:22:36.755Z,55.42
2022-09-13T17:25:07.957Z,56.75
2022-09-13T17:27:36.404Z,57.66
2022-09-13T17:30:07.164Z,57.81
2022-09-13T17:32:35.059Z,58.73
2022-09-13T17:35:03.015Z,59.01
2022-09-13T17:37:31.580Z,59.80
2022-09-13T17:39:59.600Z,60.90
2022-09-13T17:42:29.350Z,61.36
2022-09-13T17:44:57.302Z,61.79
2022-09-13T17:47:25.373Z,62.42
2022-09-13T17:49:54.147Z,63.02
2022-09-13T17:52:22.209Z,63.00
2022-09-13T17:54:51.930Z,63.28
2022-09-13T17:57:19.928Z,63.33
2022-09-13T17:59:49.825Z,63.82
2022-09-13T18:02:17.845Z,64.14
2022-09-13T18:04:45.874Z,64.03
2022-09-13T18:07:13.967Z,64.39
2022-09-13T18:09:41.839Z,64.27
2022-09-13T18:12:09.787Z,63.72
2022-09-13T18:14:37.787Z,63.53
2022-09-13T18:17:13.411Z,63.87
2022-09-13T18:19:46.502Z,63.54
2022-09-13T18:22:14.998Z,64.17
2022-09-13T18:24:43.327Z,64.78
2022-09-13T18:27:11.639Z,65.50
2022-09-13T18:29:39.631Z,65.95
2022-09-13T18:32:09.522Z,65.94
2022-09-13T18:34:37.498Z,66.47
2022-09-13T18:37:06.204Z,67.36
2022-09-13T18:39:34.352Z,67.08
2022-09-13T18:42:02.773Z,68.03
2022-09-13T18:44:31.072Z,67.87
2022-09-13T18:47:00.662Z,68.41
2022-09-13T18:49:30.067Z,68.68
2022-09-13T18:51:58.682Z,68.36
2022-09-13T18:54:26.604Z,69.10
2022-09-13T18:56:55.509Z,69.03
2022-09-13T18:59:23.944Z,69.05
2022-09-13T19:01:52.251Z,68.77
2022-09-13T19:04:21.373Z,69.09
2022-09-13T19:06:52.283Z,69.43
2022-09-13T19:09:22.771Z,69.73
2022-09-13T19:11:52.457Z,68.81
2022-09-13T19:14:23.107Z,69.07
2022-09-13T19:16:52.879Z,68.24
2022-09-13T19:19:20.926Z,67.99
2022-09-13T19:21:50.227Z,69.74
2022-09-13T19:24:21.581Z,73.12
2022-09-13T19:26:51.914Z,74.31
2022-09-13T19:29:21.724Z,76.17
2022-09-13T19:31:51.565Z,75.84
2022-09-13T19:34:20.816Z,77.04
2022-09-13T19:36:53.564Z,77.29
2022-09-13T19:39:24.768Z,79.26
2022-09-13T19:41:55.001Z,77.90
2022-09-13T19:44:22.899Z,79.53
2022-09-13T19:47:06.933Z,79.40
2022-09-13T19:49:40.686Z,79.73
2022-09-13T19:52:10.070Z,79.60
2022-09-13T19:54:38.384Z,79.22
2022-09-13T19:57:07.765Z,79.85
2022-09-13T19:59:36.038Z,80.97
2022-09-13T20:02:04.946Z,79.14
2022-09-13T20:04:32.920Z,79.27
2022-09-13T20:07:00.922Z,79.48
2022-09-13T20:09:31.707Z,79.16
2022-09-13T20:12:00.656Z,78.23
2022-09-13T20:14:29.384Z,79.26
2022-09-13T20:16:57.973Z,78.43
2022-09-13T20:19:45.063Z,78.84
2022-09-13T20:22:14.397Z,78.78
2022-09-13T20:24:44.077Z,78.60
2022-09-13T20:27:12.383Z,77.60
2022-09-13T20:29:40.431Z,79.21
2022-09-13T20:32:09.537Z,79.71
2022-09-13T20:34:37.882Z,80.78
2022-09-13T20:37:05.926Z,81.33
2022-09-13T20:39:34.217Z,79.87
2022-09-13T20:42:03.521Z,80.75
2022-09-13T20:44:31.774Z,81.93
2022-09-13T20:46:59.623Z,82.29
2022-09-13T20:49:28.657Z,81.08
2022-09-13T20:51:56.699Z,81.81
2022-09-13T20:54:25.087Z,81.95
2022-09-13T20:56:53.025Z,81.57
2022-09-13T20:59:22.772Z,81.55
2022-09-13T21:01:51.235Z,81.80
2022-09-13T21:04:19.286Z,81.85
2022-09-13T21:07:01.393Z,86.13
2022-09-13T21:09:29.894Z,86.63
2022-09-13T21:11:58.247Z,87.62
2022-09-13T21:14:27.589Z,86.51
2022-09-13T21:16:57.253Z,86.11
2022-09-13T21:19:26.666Z,85.48
2022-09-13T21:21:55.478Z,85.66
2022-09-13T21:24:23.384Z,86.17
2022-09-13T21:26:51.784Z,86.54
2022-09-13T21:29:19.736Z,86.24
2022-09-13T21:31:49.914Z,87.21
2022-09-13T21:34:19.654Z,87.27
2022-09-13T21:36:48.794Z,86.28
2022-09-13T21:39:18.616Z,87.64
2022-09-13T21:41:48.012Z,86.97
2022-09-13T21:44:16.938Z,87.14
2022-09-13T21:46:46.560Z,88.10
2022-09-13T21:49:16.928Z,87.20
2022-09-13T21:51:46.553Z,88.73
2022-09-13T21:54:16.646Z,89.26
2022-09-13T21:56:46.158Z,89.86
2022-09-13T21:59:16.424Z,90.61
2022-09-13T22:01:46.909Z,90.78
2022-09-13T22:04:19.528Z,89.79
2022-09-13T22:06:51.533Z,88.15
2022-09-13T22:09:20.762Z,90.01
2022-09-13T22:11:50.218Z,91.34
2022-09-13T22:14:22.171Z,93.04
2022-09-13T22:16:52.386Z,93.06
2022-09-13T22:19:23.918Z,92.26
2022-09-13T22:21:55.265Z,91.58
2022-09-13T22:24:25.427Z,91.60
2022-09-13T22:26:54.359Z,90.45
2022-09-13T22:29:22.988Z,91.62
2022-09-13T22:31:52.187Z,91.92
2022-09-13T22:34:23.382Z,92.63
2022-09-13T22:36:51.284Z,92.09
2022-09-13T22:39:19.984Z,92.70
2022-09-13T22:41:47.907Z,91.97
2022-09-13T22:44:16.211Z,92.42
2022-09-13T22:46:45.349Z,92.00
2022-09-13T22:49:14.325Z,92.85
2022-09-13T22:51:45.176Z,92.77
2022-09-13T22:54:14.121Z,92.32
2022-09-13T22:56:42.927Z,92.65
2022-09-13T22:59:14.023Z,92.47
2022-09-13T23:01:42.136Z,91.75
2022-09-13T23:04:10.559Z,93.02
2022-09-13T23:06:38.534Z,93.06
2022-09-13T23:09:09.439Z,92.00
2022-09-13T23:11:39.172Z,92.94
2022-09-13T23:14:10.212Z,91.85
2022-09-13T23:16:43.604Z,92.62
2022-09-13T23:19:13.042Z,92.45
2022-09-13T23:21:42.263Z,93.17
2022-09-13T23:24:15.564Z,92.88
2022-09-13T23:26:44.114Z,93.46
2022-09-13T23:29:15.106Z,93.51
2022-09-13T23:31:43.666Z,93.06
2022-09-13T23:34:13.082Z,92.51
2022-09-13T23:36:43.134Z,93.41
2022-09-13T23:39:16.963Z,93.11
2022-09-13T23:41:45.958Z,93.64
2022-09-13T23:44:14.683Z,93.10
2022-09-13T23:46:43.066Z,92.01
2022-09-13T23:49:11.415Z,93.72
2022-09-13T23:51:39.413Z,95.13
2022-09-13T23:54:07.874Z,94.04
2022-09-13T23:56:37.223Z,93.66
2022-09-13T23:59:06.669Z,94.32
